sensor_id;sensor_type;location;lat;lon;timestamp;pressure;altitude;pressure_sealevel;temperature;humidity
10946;BME280;5525;42.648;23.368;2023-04-26T00:00:46;93781.06;;;9.23;100.00
10946;BME280;5525;42.648;23.368;2023-04-26T00:03:15;93772.41;;;9.30;100.00
10946;BME280;5525;42.648;23.368;2023-04-26T00:05:41;93772.09;;;9.19;100.00
10946;BME280;5525;42.648;23.368;2023-04-26T00:08:08;93769.63;;;9.14;100.00
10946;BME280;5525;42.648;23.368;2023-04-26T00:10:35;93761.06;;;9.12;100.00
10946;BME280;5525;42.648;23.368;2023-04-26T00:13:01;93760.19;;;9.08;100.00
10946;BME280;5525;42.648;23.368;2023-04-26T00:15:28;93758.59;;;9.07;100.00
10946;BME280;5525;42.648;23.368;2023-04-26T00:17:56;93750.75;;;9.02;100.00
10946;BME280;5525;42.648;23.368;2023-04-26T00:20:24;93743.00;;;8.89;100.00
10946;BME280;5525;42.648;23.368;2023-04-26T00:22:51;93741.88;;;8.90;100.00
10946;BME280;5525;42.648;23.368;2023-04-26T00:25:18;93746.34;;;8.86;100.00
10946;BME280;5525;42.648;23.368;2023-04-26T00:27:45;93747.94;;;8.87;100.00
10946;BME280;5525;42.648;23.368;2023-04-26T00:30:12;93756.22;;;8.82;100.00
10946;BME280;5525;42.648;23.368;2023-04-26T00:32:39;93750.50;;;8.83;100.00
10946;BME280;5525;42.648;23.368;2023-04-26T00:35:07;93741.41;;;8.76;100.00
10946;BME280;5525;42.648;23.368;2023-04-26T00:37:35;93732.44;;;8.72;100.00
10946;BME280;5525;42.648;23.368;2023-04-26T00:40:01;93734.56;;;8.66;100.00
10946;BME280;5525;42.648;23.368;2023-04-26T00:42:28;93728.16;;;8.58;100.00
10946;BME280;5525;42.648;23.368;2023-04-26T00:44:55;93737.91;;;8.51;100.00
10946;BME280;5525;42.648;23.368;2023-04-26T00:47:23;93736.84;;;8.11;100.00
10946;BME280;5525;42.648;23.368;2023-04-26T00:49:50;93730.66;;;8.10;100.00
10946;BME280;5525;42.648;23.368;2023-04-26T00:52:17;93740.19;;;8.08;100.00
10946;BME280;5525;42.648;23.368;2023-04-26T00:54:47;93728.91;;;8.14;100.00
10946;BME280;5525;42.648;23.368;2023-04-26T00:57:14;93728.78;;;8.11;100.00
10946;BME280;5525;42.648;23.368;2023-04-26T00:59:41;93742.41;;;8.06;100.00
10946;BME280;5525;42.648;23.368;2023-04-26T01:02:07;93747.22;;;7.80;100.00
10946;BME280;5525;42.648;23.368;2023-04-26T01:04:37;93731.00;;;7.76;100.00
10946;BME280;5525;42.648;23.368;2023-04-26T01:07:06;93743.78;;;7.79;100.00
10946;BME280;5525;42.648;23.368;2023-04-26T01:09:33;93742.63;;;7.60;100.00
10946;BME280;5525;42.648;23.368;2023-04-26T01:12:01;93754.31;;;7.64;100.00
10946;BME280;5525;42.648;23.368;2023-04-26T01:14:28;93751.09;;;7.50;100.00
10946;BME280;5525;42.648;23.368;2023-04-26T01:16:56;93744.34;;;7.44;100.00
10946;BME280;5525;42.648;23.368;2023-04-26T01:19:22;93751.53;;;7.31;100.00
10946;BME280;5525;42.648;23.368;2023-04-26T01:21:49;93749.44;;;7.37;100.00
10946;BME280;5525;42.648;23.368;2023-04-26T01:24:18;93728.06;;;7.20;100.00
10946;BME280;5525;42.648;23.368;2023-04-26T01:26:44;93737.59;;;7.09;100.00
10946;BME280;5525;42.648;23.368;2023-04-26T01:29:15;93725.38;;;7.20;100.00
10946;BME280;5525;42.648;23.368;2023-04-26T01:31:41;93723.81;;;7.19;100.00
10946;BME280;5525;42.648;23.368;2023-04-26T01:34:08;93726.66;;;7.14;100.00
10946;BME280;5525;42.648;23.368;2023-04-26T01:36:35;93723.94;;;7.22;100.00
10946;BME280;5525;42.648;23.368;2023-04-26T01:39:02;93735.50;;;7.14;100.00
10946;BME280;5525;42.648;23.368;2023-04-26T01:41:31;93729.44;;;6.97;100.00
10946;BME280;5525;42.648;23.368;2023-04-26T01:43:58;93740.16;;;6.97;100.00
10946;BME280;5525;42.648;23.368;2023-04-26T01:46:24;93747.28;;;7.01;100.00
10946;BME280;5525;42.648;23.368;2023-04-26T01:48:51;93745.78;;;7.12;100.00
10946;BME280;5525;42.648;23.368;2023-04-26T01:51:18;93746.09;;;7.11;100.00
10946;BME280;5525;42.648;23.368;2023-04-26T01:53:45;93747.16;;;7.18;100.00
10946;BME280;5525;42.648;23.368;2023-04-26T01:56:12;93738.03;;;7.19;100.00
10946;BME280;5525;42.648;23.368;2023-04-26T01:58:40;93740.00;;;7.31;100.00
10946;BME280;5525;42.648;23.368;2023-04-26T02:01:08;93732.91;;;7.26;100.00
10946;BME280;5525;42.648;23.368;2023-04-26T02:03:35;93735.09;;;7.33;100.00
10946;BME280;5525;42.648;23.368;2023-04-26T02:06:02;93726.44;;;7.27;100.00
10946;BME280;5525;42.648;23.368;2023-04-26T02:08:28;93727.41;;;7.23;100.00
10946;BME280;5525;42.648;23.368;2023-04-26T02:10:55;93734.34;;;7.24;100.00
10946;BME280;5525;42.648;23.368;2023-04-26T02:13:22;93729.34;;;7.14;100.00
10946;BME280;5525;42.648;23.368;2023-04-26T02:15:50;93728.47;;;7.30;100.00
10946;BME280;5525;42.648;23.368;2023-04-26T02:18:17;93730.13;;;7.43;100.00
10946;BME280;5525;42.648;23.368;2023-04-26T02:20:46;93714.84;;;7.35;100.00
10946;BME280;5525;42.648;23.368;2023-04-26T02:23:13;93721.91;;;7.40;100.00
10946;BME280;5525;42.648;23.368;2023-04-26T02:25:40;93717.28;;;7.28;100.00
10946;BME280;5525;42.648;23.368;2023-04-26T02:28:07;93723.00;;;7.18;100.00
10946;BME280;5525;42.648;23.368;2023-04-26T02:30:34;93730.41;;;7.21;100.00
10946;BME280;5525;42.648;23.368;2023-04-26T02:33:02;93727.19;;;7.36;100.00
10946;BME280;5525;42.648;23.368;2023-04-26T02:35:29;93739.63;;;7.41;100.00
10946;BME280;5525;42.648;23.368;2023-04-26T02:37:56;93721.28;;;7.63;100.00
10946;BME280;5525;42.648;23.368;2023-04-26T02:40:22;93722.38;;;7.83;100.00
10946;BME280;5525;42.648;23.368;2023-04-26T02:42:49;93726.31;;;7.85;100.00
10946;BME280;5525;42.648;23.368;2023-04-26T02:45:16;93722.84;;;7.85;100.00
10946;BME280;5525;42.648;23.368;2023-04-26T02:47:42;93717.97;;;7.99;100.00
10946;BME280;5525;42.648;23.368;2023-04-26T02:50:11;93712.41;;;8.04;100.00
10946;BME280;5525;42.648;23.368;2023-04-26T02:52:37;93714.81;;;8.17;100.00
10946;BME280;5525;42.648;23.368;2023-04-26T02:55:05;93700.19;;;8.27;100.00
10946;BME280;5525;42.648;23.368;2023-04-26T02:57:32;93686.31;;;8.37;100.00
10946;BME280;5525;42.648;23.368;2023-04-26T02:59:59;93703.09;;;8.34;100.00
10946;BME280;5525;42.648;23.368;2023-04-26T03:02:26;93695.94;;;8.38;100.00
10946;BME280;5525;42.648;23.368;2023-04-26T03:04:53;93703.13;;;8.46;100.00
10946;BME280;5525;42.648;23.368;2023-04-26T03:07:24;93708.50;;;8.34;100.00
10946;BME280;5525;42.648;23.368;2023-04-26T03:09:52;93703.03;;;8.42;100.00
10946;BME280;5525;42.648;23.368;2023-04-26T03:12:21;93700.53;;;8.37;100.00
10946;BME280;5525;42.648;23.368;2023-04-26T03:14:47;93700.75;;;8.32;100.00
10946;BME280;5525;42.648;23.368;2023-04-26T03:17:17;93701.88;;;8.11;100.00
10946;BME280;5525;42.648;23.368;2023-04-26T03:19:45;93699.63;;;8.01;100.00
10946;BME280;5525;42.648;23.368;2023-04-26T03:22:12;93696.06;;;8.09;100.00
10946;BME280;5525;42.648;23.368;2023-04-26T03:24:42;93699.22;;;7.90;100.00
10946;BME280;5525;42.648;23.368;2023-04-26T03:27:08;93706.28;;;8.15;100.00
10946;BME280;5525;42.648;23.368;2023-04-26T03:29:35;93705.75;;;8.22;100.00
10946;BME280;5525;42.648;23.368;2023-04-26T03:32:02;93707.25;;;8.31;100.00
10946;BME280;5525;42.648;23.368;2023-04-26T03:34:28;93707.81;;;8.37;100.00
10946;BME280;5525;42.648;23.368;2023-04-26T03:36:55;93706.50;;;8.43;100.00
10946;BME280;5525;42.648;23.368;2023-04-26T03:39:22;93702.38;;;8.45;100.00
10946;BME280;5525;42.648;23.368;2023-04-26T03:41:50;93703.31;;;8.29;100.00
10946;BME280;5525;42.648;23.368;2023-04-26T03:44:16;93711.50;;;8.32;100.00
10946;BME280;5525;42.648;23.368;2023-04-26T03:46:44;93712.06;;;8.38;100.00
10946;BME280;5525;42.648;23.368;2023-04-26T03:49:10;93702.44;;;8.37;100.00
10946;BME280;5525;42.648;23.368;2023-04-26T03:51:37;93699.75;;;8.37;100.00
10946;BME280;5525;42.648;23.368;2023-04-26T03:54:04;93703.94;;;8.46;100.00
10946;BME280;5525;42.648;23.368;2023-04-26T03:56:30;93711.00;;;8.51;100.00
10946;BME280;5525;42.648;23.368;2023-04-26T03:58:58;93704.28;;;8.57;100.00
10946;BME280;5525;42.648;23.368;2023-04-26T04:01:25;93704.19;;;8.66;100.00
10946;BME280;5525;42.648;23.368;2023-04-26T04:03:52;93707.31;;;8.80;100.00
10946;BME280;5525;42.648;23.368;2023-04-26T04:06:19;93718.88;;;8.80;100.00
10946;BME280;5525;42.648;23.368;2023-04-26T04:08:46;93719.00;;;8.72;100.00
10946;BME280;5525;42.648;23.368;2023-04-26T04:11:12;93728.50;;;8.81;100.00
10946;BME280;5525;42.648;23.368;2023-04-26T04:13:39;93734.81;;;8.85;100.00
10946;BME280;5525;42.648;23.368;2023-04-26T04:16:07;93733.47;;;8.91;100.00
10946;BME280;5525;42.648;23.368;2023-04-26T04:18:34;93736.28;;;9.07;100.00
10946;BME280;5525;42.648;23.368;2023-04-26T04:21:01;93727.31;;;9.15;100.00
10946;BME280;5525;42.648;23.368;2023-04-26T04:23:28;93728.88;;;9.28;100.00
10946;BME280;5525;42.648;23.368;2023-04-26T04:25:55;93731.69;;;9.31;100.00
10946;BME280;5525;42.648;23.368;2023-04-26T04:28:22;93728.84;;;9.40;100.00
10946;BME280;5525;42.648;23.368;2023-04-26T04:30:48;93737.38;;;9.54;100.00
10946;BME280;5525;42.648;23.368;2023-04-26T04:33:16;93739.19;;;9.50;100.00
10946;BME280;5525;42.648;23.368;2023-04-26T04:35:43;93740.31;;;9.37;100.00
10946;BME280;5525;42.648;23.368;2023-04-26T04:38:10;93747.75;;;9.91;100.00
10946;BME280;5525;42.648;23.368;2023-04-26T04:40:37;93737.13;;;10.38;100.00
10946;BME280;5525;42.648;23.368;2023-04-26T04:43:04;93741.59;;;11.20;100.00
10946;BME280;5525;42.648;23.368;2023-04-26T04:45:31;93755.75;;;11.64;100.00
10946;BME280;5525;42.648;23.368;2023-04-26T04:47:57;93719.66;;;11.41;100.00
10946;BME280;5525;42.648;23.368;2023-04-26T04:50:25;93740.06;;;11.38;100.00
10946;BME280;5525;42.648;23.368;2023-04-26T04:52:52;93747.13;;;11.43;100.00
10946;BME280;5525;42.648;23.368;2023-04-26T04:55:19;93746.13;;;11.82;100.00
10946;BME280;5525;42.648;23.368;2023-04-26T04:57:45;93747.25;;;11.31;100.00
10946;BME280;5525;42.648;23.368;2023-04-26T05:00:13;93743.75;;;11.15;100.00
10946;BME280;5525;42.648;23.368;2023-04-26T05:02:40;93750.88;;;11.54;100.00
10946;BME280;5525;42.648;23.368;2023-04-26T05:05:08;93735.03;;;11.21;100.00
10946;BME280;5525;42.648;23.368;2023-04-26T05:07:37;93740.88;;;11.23;100.00
10946;BME280;5525;42.648;23.368;2023-04-26T05:10:04;93742.91;;;11.76;100.00
10946;BME280;5525;42.648;23.368;2023-04-26T05:12:31;93747.59;;;12.14;100.00
10946;BME280;5525;42.648;23.368;2023-04-26T05:14:59;93753.50;;;12.20;100.00
10946;BME280;5525;42.648;23.368;2023-04-26T05:17:26;93746.03;;;12.51;100.00
10946;BME280;5525;42.648;23.368;2023-04-26T05:19:55;93752.31;;;12.78;100.00
10946;BME280;5525;42.648;23.368;2023-04-26T05:22:21;93747.59;;;12.52;100.00
10946;BME280;5525;42.648;23.368;2023-04-26T05:24:49;93755.34;;;12.35;100.00
10946;BME280;5525;42.648;23.368;2023-04-26T05:27:16;93747.91;;;12.28;100.00
10946;BME280;5525;42.648;23.368;2023-04-26T05:29:43;93755.00;;;12.74;100.00
10946;BME280;5525;42.648;23.368;2023-04-26T05:32:10;93760.84;;;12.19;100.00
10946;BME280;5525;42.648;23.368;2023-04-26T05:34:37;93759.69;;;12.77;100.00
10946;BME280;5525;42.648;23.368;2023-04-26T05:37:03;93761.34;;;13.04;100.00
10946;BME280;5525;42.648;23.368;2023-04-26T05:39:30;93765.19;;;14.53;100.00
10946;BME280;5525;42.648;23.368;2023-04-26T05:41:58;93761.25;;;15.20;100.00
10946;BME280;5525;42.648;23.368;2023-04-26T05:44:26;93755.75;;;16.82;100.00
10946;BME280;5525;42.648;23.368;2023-04-26T05:46:52;93743.84;;;17.82;100.00
10946;BME280;5525;42.648;23.368;2023-04-26T05:49:19;93748.94;;;16.41;100.00
10946;BME280;5525;42.648;23.368;2023-04-26T05:51:46;93760.72;;;15.07;100.00
10946;BME280;5525;42.648;23.368;2023-04-26T05:54:12;93754.78;;;15.35;100.00
10946;BME280;5525;42.648;23.368;2023-04-26T05:56:39;93752.13;;;15.89;100.00
10946;BME280;5525;42.648;23.368;2023-04-26T05:59:07;93751.84;;;16.76;100.00
10946;BME280;5525;42.648;23.368;2023-04-26T06:01:34;93748.09;;;15.69;100.00
10946;BME280;5525;42.648;23.368;2023-04-26T06:04:01;93748.97;;;15.37;100.00
10946;BME280;5525;42.648;23.368;2023-04-26T06:06:27;93751.47;;;15.52;100.00
10946;BME280;5525;42.648;23.368;2023-04-26T06:08:54;93745.44;;;15.33;100.00
10946;BME280;5525;42.648;23.368;2023-04-26T06:11:21;93750.78;;;15.22;100.00
10946;BME280;5525;42.648;23.368;2023-04-26T06:13:51;93757.03;;;17.38;100.00
10946;BME280;5525;42.648;23.368;2023-04-26T06:16:19;93755.88;;;17.25;100.00
10946;BME280;5525;42.648;23.368;2023-04-26T06:18:45;93755.28;;;16.63;100.00
10946;BME280;5525;42.648;23.368;2023-04-26T06:21:12;93757.25;;;16.66;100.00
10946;BME280;5525;42.648;23.368;2023-04-26T06:23:38;93756.19;;;16.99;100.00
10946;BME280;5525;42.648;23.368;2023-04-26T06:26:05;93753.34;;;16.63;100.00
10946;BME280;5525;42.648;23.368;2023-04-26T06:28:32;93752.34;;;17.21;100.00
10946;BME280;5525;42.648;23.368;2023-04-26T06:30:58;93746.44;;;19.96;83.43
10946;BME280;5525;42.648;23.368;2023-04-26T06:33:27;93742.00;;;20.09;71.25
10946;BME280;5525;42.648;23.368;2023-04-26T06:35:53;93757.16;;;19.08;77.22
10946;BME280;5525;42.648;23.368;2023-04-26T06:38:20;93752.38;;;18.29;83.92
10946;BME280;5525;42.648;23.368;2023-04-26T06:40:47;93754.50;;;16.55;94.94
10946;BME280;5525;42.648;23.368;2023-04-26T06:43:14;93748.25;;;16.55;100.00
10946;BME280;5525;42.648;23.368;2023-04-26T06:45:41;93745.81;;;15.31;100.00
10946;BME280;5525;42.648;23.368;2023-04-26T06:48:08;93748.00;;;14.45;100.00
10946;BME280;5525;42.648;23.368;2023-04-26T06:50:37;93755.44;;;12.99;100.00
10946;BME280;5525;42.648;23.368;2023-04-26T06:53:04;93751.66;;;12.43;100.00
10946;BME280;5525;42.648;23.368;2023-04-26T06:55:31;93752.34;;;12.02;100.00
10946;BME280;5525;42.648;23.368;2023-04-26T06:57:57;93758.25;;;12.07;100.00
10946;BME280;5525;42.648;23.368;2023-04-26T07:00:24;93760.53;;;13.00;100.00
10946;BME280;5525;42.648;23.368;2023-04-26T07:02:52;93755.22;;;13.52;100.00
10946;BME280;5525;42.648;23.368;2023-04-26T07:05:19;93756.00;;;14.64;100.00
10946;BME280;5525;42.648;23.368;2023-04-26T07:07:47;93765.19;;;17.06;83.67
10946;BME280;5525;42.648;23.368;2023-04-26T07:10:14;93755.34;;;18.81;72.31
10946;BME280;5525;42.648;23.368;2023-04-26T07:12:41;93751.72;;;20.21;63.90
10946;BME280;5525;42.648;23.368;2023-04-26T07:15:09;93765.25;;;18.43;63.66
10946;BME280;5525;42.648;23.368;2023-04-26T07:17:35;93757.38;;;18.66;67.31
10946;BME280;5525;42.648;23.368;2023-04-26T07:20:02;93766.84;;;19.34;62.36
10946;BME280;5525;42.648;23.368;2023-04-26T07:22:30;93766.94;;;20.26;59.28
10946;BME280;5525;42.648;23.368;2023-04-26T07:24:58;93769.28;;;19.76;58.41
10946;BME280;5525;42.648;23.368;2023-04-26T07:27:24;93770.78;;;20.32;55.18
10946;BME280;5525;42.648;23.368;2023-04-26T07:29:52;93765.94;;;21.17;53.68
10946;BME280;5525;42.648;23.368;2023-04-26T07:32:20;93770.78;;;21.62;50.56
10946;BME280;5525;42.648;23.368;2023-04-26T07:34:46;93770.31;;;19.41;57.02
10946;BME280;5525;42.648;23.368;2023-04-26T07:37:13;93768.81;;;17.63;61.60
10946;BME280;5525;42.648;23.368;2023-04-26T07:39:40;93769.34;;;16.04;80.94
10946;BME280;5525;42.648;23.368;2023-04-26T07:42:08;93778.50;;;17.36;65.78
10946;BME280;5525;42.648;23.368;2023-04-26T07:44:34;93778.84;;;17.24;65.34
10946;BME280;5525;42.648;23.368;2023-04-26T07:47:01;93773.84;;;18.31;60.78
10946;BME280;5525;42.648;23.368;2023-04-26T07:49:28;93784.81;;;17.89;58.39
10946;BME280;5525;42.648;23.368;2023-04-26T07:51:54;93788.31;;;17.51;61.21
10946;BME280;5525;42.648;23.368;2023-04-26T07:54:22;93784.13;;;16.74;63.77
10946;BME280;5525;42.648;23.368;2023-04-26T07:56:49;93788.44;;;16.79;65.30
10946;BME280;5525;42.648;23.368;2023-04-26T07:59:17;93778.59;;;15.08;75.60
10946;BME280;5525;42.648;23.368;2023-04-26T08:01:43;93778.59;;;14.72;79.81
10946;BME280;5525;42.648;23.368;2023-04-26T08:04:10;93776.91;;;15.74;74.25
10946;BME280;5525;42.648;23.368;2023-04-26T08:06:37;93779.03;;;15.98;67.97
10946;BME280;5525;42.648;23.368;2023-04-26T08:09:03;93785.78;;;16.97;62.98
10946;BME280;5525;42.648;23.368;2023-04-26T08:11:30;93791.81;;;16.48;65.05
10946;BME280;5525;42.648;23.368;2023-04-26T08:13:57;93790.66;;;17.56;61.62
10946;BME280;5525;42.648;23.368;2023-04-26T08:16:25;93786.34;;;17.79;60.23
10946;BME280;5525;42.648;23.368;2023-04-26T08:18:51;93789.75;;;17.17;60.99
10946;BME280;5525;42.648;23.368;2023-04-26T08:21:19;93778.44;;;17.15;61.33
10946;BME280;5525;42.648;23.368;2023-04-26T08:23:45;93789.88;;;17.69;58.58
10946;BME280;5525;42.648;23.368;2023-04-26T08:26:12;93782.84;;;18.10;60.15
10946;BME280;5525;42.648;23.368;2023-04-26T08:28:38;93799.16;;;16.40;64.08
10946;BME280;5525;42.648;23.368;2023-04-26T08:31:05;93790.72;;;16.02;65.99
10946;BME280;5525;42.648;23.368;2023-04-26T08:33:33;93766.28;;;15.58;71.65
10946;BME280;5525;42.648;23.368;2023-04-26T08:36:00;93782.22;;;16.10;67.95
10946;BME280;5525;42.648;23.368;2023-04-26T08:38:27;93785.25;;;15.11;71.86
10946;BME280;5525;42.648;23.368;2023-04-26T08:40:56;93778.13;;;14.99;75.13
10946;BME280;5525;42.648;23.368;2023-04-26T08:43:27;93783.53;;;14.63;79.03
10946;BME280;5525;42.648;23.368;2023-04-26T08:45:53;93790.59;;;15.04;80.34
10946;BME280;5525;42.648;23.368;2023-04-26T08:48:20;93780.06;;;14.66;78.97
10946;BME280;5525;42.648;23.368;2023-04-26T08:50:49;93791.16;;;15.20;78.68
10946;BME280;5525;42.648;23.368;2023-04-26T08:53:17;93793.84;;;14.50;80.88
10946;BME280;5525;42.648;23.368;2023-04-26T08:55:46;93793.91;;;14.87;77.96
10946;BME280;5525;42.648;23.368;2023-04-26T08:58:14;93789.94;;;15.14;80.14
10946;BME280;5525;42.648;23.368;2023-04-26T09:00:42;93801.06;;;15.02;80.88
10946;BME280;5525;42.648;23.368;2023-04-26T09:03:09;93791.06;;;15.09;78.51
10946;BME280;5525;42.648;23.368;2023-04-26T09:05:38;93794.16;;;15.11;81.58
10946;BME280;5525;42.648;23.368;2023-04-26T09:08:13;93796.13;;;14.78;78.96
10946;BME280;5525;42.648;23.368;2023-04-26T09:10:41;93803.69;;;16.19;72.21
10946;BME280;5525;42.648;23.368;2023-04-26T09:13:08;93802.94;;;16.25;68.03
10946;BME280;5525;42.648;23.368;2023-04-26T09:15:35;93797.63;;;15.89;70.98
10946;BME280;5525;42.648;23.368;2023-04-26T09:18:15;93804.69;;;15.50;70.40
10946;BME280;5525;42.648;23.368;2023-04-26T09:20:43;93801.53;;;15.44;70.13
10946;BME280;5525;42.648;23.368;2023-04-26T09:23:12;93807.75;;;15.11;70.96
10946;BME280;5525;42.648;23.368;2023-04-26T09:25:41;93781.38;;;15.12;70.08
10946;BME280;5525;42.648;23.368;2023-04-26T09:28:19;93800.88;;;15.58;68.89
10946;BME280;5525;42.648;23.368;2023-04-26T09:30:46;93802.03;;;15.20;73.25
10946;BME280;5525;42.648;23.368;2023-04-26T09:33:13;93803.81;;;15.05;74.31
10946;BME280;5525;42.648;23.368;2023-04-26T09:35:42;93806.25;;;15.14;73.20
10946;BME280;5525;42.648;23.368;2023-04-26T09:38:12;93794.84;;;14.68;73.42
10946;BME280;5525;42.648;23.368;2023-04-26T09:40:40;93804.22;;;15.41;71.67
10946;BME280;5525;42.648;23.368;2023-04-26T09:43:09;93799.28;;;16.00;69.15
10946;BME280;5525;42.648;23.368;2023-04-26T09:45:44;93802.91;;;15.68;69.57
10946;BME280;5525;42.648;23.368;2023-04-26T09:48:13;93796.38;;;15.36;69.24
10946;BME280;5525;42.648;23.368;2023-04-26T09:50:41;93797.28;;;15.47;68.50
10946;BME280;5525;42.648;23.368;2023-04-26T09:53:08;93791.81;;;15.43;69.60
10946;BME280;5525;42.648;23.368;2023-04-26T09:55:37;93782.72;;;15.72;69.76
10946;BME280;5525;42.648;23.368;2023-04-26T09:58:08;93782.53;;;15.11;70.67
10946;BME280;5525;42.648;23.368;2023-04-26T10:00:37;93791.28;;;16.28;66.88
10946;BME280;5525;42.648;23.368;2023-04-26T10:03:06;93796.91;;;16.56;63.20
10946;BME280;5525;42.648;23.368;2023-04-26T10:05:33;93786.38;;;16.51;63.26
10946;BME280;5525;42.648;23.368;2023-04-26T10:08:01;93798.19;;;16.80;61.38
10946;BME280;5525;42.648;23.368;2023-04-26T10:10:29;93781.56;;;16.27;62.56
10946;BME280;5525;42.648;23.368;2023-04-26T10:12:57;93780.13;;;17.72;57.86
10946;BME280;5525;42.648;23.368;2023-04-26T10:15:25;93787.03;;;17.24;57.84
10946;BME280;5525;42.648;23.368;2023-04-26T10:17:52;93783.28;;;16.56;60.75
10946;BME280;5525;42.648;23.368;2023-04-26T10:20:19;93778.09;;;16.34;60.24
10946;BME280;5525;42.648;23.368;2023-04-26T10:22:51;93789.00;;;16.34;62.05
10946;BME280;5525;42.648;23.368;2023-04-26T10:25:18;93775.44;;;17.51;55.86
10946;BME280;5525;42.648;23.368;2023-04-26T10:27:49;93783.72;;;19.15;49.91
10946;BME280;5525;42.648;23.368;2023-04-26T10:30:19;93772.59;;;18.67;49.18
10946;BME280;5525;42.648;23.368;2023-04-26T10:36:03;93769.69;;;16.60;53.05
10946;BME280;5525;42.648;23.368;2023-04-26T10:38:30;93760.34;;;15.09;59.25
10946;BME280;5525;42.648;23.368;2023-04-26T10:44:37;93780.00;;;15.32;63.64
10946;BME280;5525;42.648;23.368;2023-04-26T10:47:06;93772.53;;;15.62;59.94
10946;BME280;5525;42.648;23.368;2023-04-26T10:49:44;93776.88;;;15.70;58.15
10946;BME280;5525;42.648;23.368;2023-04-26T10:52:13;93765.22;;;15.70;57.87
10946;BME280;5525;42.648;23.368;2023-04-26T10:54:45;93770.47;;;15.45;58.03
10946;BME280;5525;42.648;23.368;2023-04-26T10:57:12;93770.66;;;15.73;57.29
10946;BME280;5525;42.648;23.368;2023-04-26T10:59:39;93769.84;;;15.25;57.69
10946;BME280;5525;42.648;23.368;2023-04-26T11:02:10;93769.41;;;15.64;56.36
10946;BME280;5525;42.648;23.368;2023-04-26T11:04:52;93759.28;;;16.15;54.01
10946;BME280;5525;42.648;23.368;2023-04-26T11:07:36;93778.22;;;16.55;53.07
10946;BME280;5525;42.648;23.368;2023-04-26T11:10:07;93760.41;;;15.53;54.99
10946;BME280;5525;42.648;23.368;2023-04-26T11:12:34;93748.88;;;15.26;55.72
10946;BME280;5525;42.648;23.368;2023-04-26T11:15:01;93766.97;;;15.11;55.23
10946;BME280;5525;42.648;23.368;2023-04-26T11:17:35;93763.75;;;15.83;54.20
10946;BME280;5525;42.648;23.368;2023-04-26T11:20:04;93769.66;;;15.92;53.15
10946;BME280;5525;42.648;23.368;2023-04-26T11:22:38;93771.47;;;15.74;54.39
10946;BME280;5525;42.648;23.368;2023-04-26T11:25:06;93765.78;;;15.42;55.84
10946;BME280;5525;42.648;23.368;2023-04-26T11:27:33;93764.88;;;14.94;56.35
10946;BME280;5525;42.648;23.368;2023-04-26T11:30:01;93760.88;;;15.21;55.01
10946;BME280;5525;42.648;23.368;2023-04-26T11:32:32;93771.03;;;15.68;55.02
10946;BME280;5525;42.648;23.368;2023-04-26T11:34:59;93775.59;;;16.08;53.02
10946;BME280;5525;42.648;23.368;2023-04-26T11:37:26;93768.75;;;16.35;50.67
10946;BME280;5525;42.648;23.368;2023-04-26T11:39:53;93775.19;;;16.77;51.18
10946;BME280;5525;42.648;23.368;2023-04-26T11:42:24;93769.66;;;16.49;50.04
10946;BME280;5525;42.648;23.368;2023-04-26T11:44:51;93770.66;;;15.73;51.03
10946;BME280;5525;42.648;23.368;2023-04-26T11:47:18;93772.75;;;15.90;50.62
10946;BME280;5525;42.648;23.368;2023-04-26T11:49:47;93776.44;;;16.19;50.57
10946;BME280;5525;42.648;23.368;2023-04-26T11:52:14;93772.38;;;16.56;50.44
10946;BME280;5525;42.648;23.368;2023-04-26T11:54:41;93771.22;;;16.54;48.53
10946;BME280;5525;42.648;23.368;2023-04-26T11:57:15;93769.31;;;16.68;48.28
10946;BME280;5525;42.648;23.368;2023-04-26T11:59:42;93779.09;;;16.69;48.34
10946;BME280;5525;42.648;23.368;2023-04-26T12:02:09;93772.50;;;16.81;48.09
10946;BME280;5525;42.648;23.368;2023-04-26T12:04:36;93754.19;;;16.81;48.94
10946;BME280;5525;42.648;23.368;2023-04-26T12:07:05;93762.81;;;16.94;50.00
10946;BME280;5525;42.648;23.368;2023-04-26T12:09:32;93748.00;;;17.02;47.02
10946;BME280;5525;42.648;23.368;2023-04-26T12:12:00;93756.25;;;17.20;46.64
10946;BME280;5525;42.648;23.368;2023-04-26T12:14:30;93756.09;;;16.63;47.76
10946;BME280;5525;42.648;23.368;2023-04-26T12:16:58;93748.13;;;16.34;48.33
10946;BME280;5525;42.648;23.368;2023-04-26T12:19:26;93758.91;;;16.13;49.23
10946;BME280;5525;42.648;23.368;2023-04-26T12:21:52;93749.91;;;16.09;49.98
10946;BME280;5525;42.648;23.368;2023-04-26T12:24:23;93754.97;;;16.03;51.95
10946;BME280;5525;42.648;23.368;2023-04-26T12:26:49;93741.75;;;15.51;51.51
10946;BME280;5525;42.648;23.368;2023-04-26T12:29:16;93741.91;;;15.72;52.74
10946;BME280;5525;42.648;23.368;2023-04-26T12:31:43;93740.38;;;16.36;50.56
10946;BME280;5525;42.648;23.368;2023-04-26T12:34:10;93747.88;;;16.56;49.02
10946;BME280;5525;42.648;23.368;2023-04-26T12:36:39;93748.34;;;16.83;48.24
10946;BME280;5525;42.648;23.368;2023-04-26T12:39:05;93746.03;;;16.81;48.51
10946;BME280;5525;42.648;23.368;2023-04-26T12:41:33;93744.53;;;16.19;50.39
10946;BME280;5525;42.648;23.368;2023-04-26T12:44:00;93750.97;;;15.90;50.55
10946;BME280;5525;42.648;23.368;2023-04-26T12:46:27;93735.94;;;15.56;50.65
10946;BME280;5525;42.648;23.368;2023-04-26T12:48:53;93752.53;;;15.41;51.27
10946;BME280;5525;42.648;23.368;2023-04-26T12:51:20;93740.66;;;15.19;50.91
10946;BME280;5525;42.648;23.368;2023-04-26T12:53:47;93744.59;;;15.69;51.00
10946;BME280;5525;42.648;23.368;2023-04-26T12:56:15;93741.66;;;15.91;50.55
10946;BME280;5525;42.648;23.368;2023-04-26T12:58:43;93748.91;;;15.70;51.37
10946;BME280;5525;42.648;23.368;2023-04-26T13:01:11;93722.56;;;15.37;51.76
10946;BME280;5525;42.648;23.368;2023-04-26T13:03:38;93746.72;;;15.05;52.69
10946;BME280;5525;42.648;23.368;2023-04-26T13:06:05;93746.88;;;14.83;52.66